Skip Navigation LinksHome page > Weather > Current weather Skip Navigation Links

Current Weather

Chicago Midway, Chicago

For information only: do not use for flight planning or navigation.
Latest weather
Observation time Monday, November 29, 2021 2:53 PM CST
Local time Monday, November 29, 2021 3:39 PM CST
Flight conditions Visual Meteorological Conditions
Winds
Wind direction South (170°)
Wind speed 15 mph
Wind gusting to 25 mph
Visibility 10 mi.
Sky condition
Ceiling 9,000 ft. overcast
Cloud layer few clouds 7,500 ft.
Cloud layer overcast 9,000 ft.
Temperature 41°F
Dewpoint 17°F
Altimeter 29.87 in.Hg
Pressure change last 3 hours0.12 in.Hg
Pressure falling more quickly
Derived measurements
Relative humidity 38%
Wind chill 33°F
Density altitude -473 ft.
Sea-level pressure 29.90 in.Hg
Remarks
Automated weather observing station with precipitation discriminator.
METAR KMDW 292053Z 17013G22KT 10SM FEW075 OVC090 05/M08 A2987 RMK AO2 SLP124 T00501083 58042

Settings

Location code

InnerDrive.Weather 4.0.6770.0 Release CLR 4.0.30319.42000
Copyright ©2018 Inner Drive Technology. All rights reserved. Portions Copyright ©1986-2018 David Braverman.

Find weather

Site navigation


Skip Navigation Links

Place info

Page info

PayPal - The safer, easier way to pay online!

Return home.

Copyright ©2021 Inner Drive Technology. Purveyors of fine, hand-crafted computer software. Page printed 2021-11-29T21:39:58 UTC.